createdAt,value
2019-02-27T00:06:47.909Z,1.28
2019-02-27T00:09:19.316Z,1.34
2019-02-27T00:11:50.614Z,1.31
2019-02-27T00:14:19.272Z,1.31
2019-02-27T00:16:51.145Z,1.24
2019-02-27T00:19:20.156Z,1.22
2019-02-27T00:21:52.071Z,1.11
2019-02-27T00:24:23.571Z,1.09
2019-02-27T00:26:55.235Z,1.05
2019-02-27T00:29:23.820Z,1.08
2019-02-27T00:31:57.860Z,1.10
2019-02-27T00:34:32.818Z,1.06
2019-02-27T00:37:02.059Z,1.23
2019-02-27T00:39:33.323Z,1.38
2019-02-27T00:42:05.375Z,1.32
2019-02-27T00:44:34.790Z,1.45
2019-02-27T00:47:06.096Z,1.53
2019-02-27T00:49:35.069Z,1.42
2019-02-27T00:52:03.621Z,1.22
2019-02-27T00:54:32.214Z,1.14
2019-02-27T00:57:04.073Z,1.13
2019-02-27T00:59:35.418Z,1.21
2019-02-27T01:02:07.140Z,1.37
2019-02-27T01:04:38.692Z,1.55
2019-02-27T01:07:07.251Z,1.58
2019-02-27T01:09:39.521Z,1.60
2019-02-27T01:12:11.713Z,1.35
2019-02-27T01:14:43.267Z,1.11
2019-02-27T01:17:14.956Z,0.93
2019-02-27T01:19:43.533Z,0.87
2019-02-27T01:22:12.095Z,0.74
2019-02-27T01:24:43.863Z,1.04
2019-02-27T01:27:15.192Z,1.21
2019-02-27T01:29:43.899Z,1.33
2019-02-27T01:32:15.180Z,1.24
2019-02-27T01:34:47.770Z,0.98
2019-02-27T01:37:19.172Z,0.77
2019-02-27T01:39:50.474Z,0.65
2019-02-27T01:42:19.040Z,0.70
2019-02-27T01:44:51.937Z,0.59
2019-02-27T01:47:23.521Z,0.44
2019-02-27T01:49:56.844Z,0.46
2019-02-27T01:52:33.976Z,0.45
2019-02-27T01:55:04.861Z,0.38
2019-02-27T01:57:36.816Z,0.37
2019-02-27T02:00:09.700Z,0.33
2019-02-27T02:02:40.462Z,0.21
2019-02-27T02:05:08.667Z,0.15
2019-02-27T02:07:40.161Z,0.07
2019-02-27T02:10:11.230Z,0.01
2019-02-27T02:12:43.180Z,-0.07
2019-02-27T02:15:14.894Z,0.06
2019-02-27T02:18:01.360Z,0.03
2019-02-27T02:21:05.235Z,-0.04
2019-02-27T02:23:59.881Z,0.06
2019-02-27T02:26:55.909Z,0.05
2019-02-27T02:30:01.147Z,0.02
2019-02-27T02:32:38.640Z,-0.06
2019-02-27T02:35:19.040Z,0.06
2019-02-27T02:38:03.031Z,0.06
2019-02-27T02:40:58.980Z,0.19
2019-02-27T02:43:45.253Z,0.34
2019-02-27T02:46:22.820Z,0.38
2019-02-27T02:49:24.391Z,0.26
2019-02-27T02:52:15.167Z,0.35
2019-02-27T02:55:13.527Z,0.23
2019-02-27T02:58:11.404Z,0.20
2019-02-27T03:01:01.304Z,0.25
2019-02-27T03:03:38.848Z,0.18
2019-02-27T03:06:27.272Z,0.17
2019-02-27T03:09:30.636Z,0.16
2019-02-27T03:12:19.298Z,0.28
2019-02-27T03:15:19.402Z,0.32
2019-02-27T03:18:14.029Z,0.12
2019-02-27T03:20:52.470Z,0.08
2019-02-27T03:23:58.006Z,0.10
2019-02-27T03:27:03.594Z,0.05
2019-02-27T03:29:51.980Z,0.01
2019-02-27T03:32:54.140Z,0.05
2019-02-27T03:35:37.775Z,0.21
2019-02-27T03:38:24.820Z,0.19
2019-02-27T03:41:02.217Z,0.18
2019-02-27T03:43:54.805Z,0.27
2019-02-27T03:46:42.004Z,0.37
2019-02-27T03:49:39.758Z,0.28
2019-02-27T03:52:36.551Z,0.21
2019-02-27T03:55:15.948Z,0.22
2019-02-27T03:57:56.883Z,0.10
2019-02-27T04:00:31.341Z,0.13
2019-02-27T04:03:17.083Z,0.05
2019-02-27T04:05:50.803Z,0.18
2019-02-27T04:08:28.221Z,0.04
2019-02-27T04:10:57.444Z,0.18
2019-02-27T04:13:29.409Z,0.11
2019-02-27T04:15:59.542Z,0.08
2019-02-27T04:18:32.829Z,0.31
2019-02-27T04:21:01.418Z,0.45
2019-02-27T04:23:30.311Z,0.53
2019-02-27T04:25:58.876Z,0.52
2019-02-27T04:28:29.958Z,0.57
2019-02-27T04:31:02.143Z,0.46
2019-02-27T04:33:30.735Z,0.57
2019-02-27T04:35:59.302Z,0.50
2019-02-27T04:38:30.996Z,0.50
2019-02-27T04:40:59.907Z,0.59
2019-02-27T04:43:32.180Z,0.50
2019-02-27T04:46:01.360Z,0.32
2019-02-27T04:48:32.910Z,0.17
2019-02-27T04:51:01.496Z,0.09
2019-02-27T04:53:32.781Z,0.16
2019-02-27T04:56:01.348Z,0.08
2019-02-27T04:58:32.880Z,0.07
2019-02-27T05:01:04.408Z,0.02
2019-02-27T05:03:32.976Z,-0.03
2019-02-27T05:06:01.560Z,-0.03
2019-02-27T05:08:30.169Z,0.04
2019-02-27T05:10:58.750Z,-0.09
2019-02-27T05:13:30.057Z,0.11
2019-02-27T05:16:01.506Z,0.16
2019-02-27T05:18:33.093Z,0.25
2019-02-27T05:21:04.359Z,0.28
2019-02-27T05:23:35.801Z,0.23
2019-02-27T05:26:07.148Z,0.30
2019-02-27T05:28:36.126Z,0.23
2019-02-27T05:31:07.887Z,0.28
2019-02-27T05:33:39.882Z,0.30
2019-02-27T05:36:08.616Z,0.30
2019-02-27T05:38:41.010Z,0.13
2019-02-27T05:41:10.350Z,0.12
2019-02-27T05:43:38.950Z,-0.03
2019-02-27T05:46:07.522Z,-0.21
2019-02-27T05:48:39.434Z,-0.20
2019-02-27T05:51:10.899Z,-0.23
2019-02-27T05:53:39.486Z,-0.25
2019-02-27T05:56:15.565Z,-0.26
2019-02-27T05:58:44.572Z,-0.27
2019-02-27T06:01:13.155Z,-0.33
2019-02-27T06:03:44.530Z,-0.36
2019-02-27T06:06:15.971Z,-0.18
2019-02-27T06:08:44.580Z,-0.08
2019-02-27T06:11:15.911Z,-0.09
2019-02-27T06:13:48.236Z,-0.03
2019-02-27T06:16:17.153Z,-0.10
2019-02-27T06:18:48.583Z,-0.06
2019-02-27T06:21:17.152Z,0.06
2019-02-27T06:23:48.769Z,0.10
2019-02-27T06:26:17.338Z,-0.05
2019-02-27T06:28:45.951Z,-0.05
2019-02-27T06:31:17.690Z,-0.14
2019-02-27T06:33:49.235Z,-0.22
2019-02-27T06:36:20.727Z,-0.20
2019-02-27T06:38:52.665Z,-0.23
2019-02-27T06:41:24.022Z,-0.27
2019-02-27T06:43:55.906Z,-0.32
2019-02-27T06:46:28.704Z,-0.27
2019-02-27T06:49:00.196Z,-0.21
2019-02-27T06:51:28.776Z,-0.20
2019-02-27T06:54:00.306Z,-0.15
2019-02-27T06:56:32.120Z,0.01
2019-02-27T06:59:00.748Z,-0.01
2019-02-27T07:01:29.312Z,0.10
2019-02-27T07:04:02.243Z,0.21
2019-02-27T07:06:31.192Z,0.37
2019-02-27T07:08:59.778Z,0.29
2019-02-27T07:11:28.356Z,0.29
2019-02-27T07:13:56.952Z,0.39
2019-02-27T07:16:26.014Z,0.39
2019-02-27T07:19:13.160Z,0.60
2019-02-27T07:21:42.412Z,0.82
2019-02-27T07:24:11.005Z,0.93
2019-02-27T07:26:42.250Z,0.95
2019-02-27T07:29:10.844Z,0.97
2019-02-27T07:31:42.530Z,1.11
2019-02-27T07:34:14.896Z,1.24
2019-02-27T07:36:43.571Z,1.36
2019-02-27T07:39:12.124Z,1.46
2019-02-27T07:41:43.678Z,1.60
2019-02-27T07:44:12.229Z,1.73
2019-02-27T07:46:43.539Z,1.85
2019-02-27T07:49:15.073Z,1.99
2019-02-27T07:51:43.660Z,2.08
2019-02-27T07:54:12.580Z,2.16
2019-02-27T07:56:44.156Z,2.27
2019-02-27T07:59:15.377Z,2.41
2019-02-27T08:01:44.250Z,2.57
2019-02-27T08:04:19.041Z,2.56
2019-02-27T08:06:46.544Z,2.69
2019-02-27T08:09:18.018Z,2.79
2019-02-27T08:11:49.871Z,2.88
2019-02-27T08:14:21.398Z,3.03
2019-02-27T08:16:57.177Z,3.15
2019-02-27T08:19:26.309Z,3.24
2019-02-27T08:22:01.254Z,3.40
2019-02-27T08:24:33.784Z,3.62
2019-02-27T08:27:02.889Z,3.77
2019-02-27T08:29:31.830Z,3.99
2019-02-27T08:32:05.348Z,4.10
2019-02-27T08:34:33.511Z,4.18
2019-02-27T08:37:04.957Z,4.34
2019-02-27T08:39:36.506Z,4.47
2019-02-27T08:42:07.781Z,4.62
2019-02-27T08:44:39.307Z,4.78
2019-02-27T08:47:11.015Z,4.94
2019-02-27T08:49:39.575Z,5.14
2019-02-27T08:52:08.564Z,5.14
2019-02-27T08:54:40.041Z,5.42
2019-02-27T08:57:11.321Z,5.42
2019-02-27T08:59:42.762Z,5.63
2019-02-27T09:02:11.412Z,5.84
2019-02-27T09:04:45.530Z,5.84
2019-02-27T09:07:16.377Z,6.01
2019-02-27T09:09:51.192Z,6.06
2019-02-27T09:12:18.201Z,6.34
2019-02-27T09:14:50.448Z,6.34
2019-02-27T09:17:22.024Z,6.49
2019-02-27T09:19:53.365Z,6.58
2019-02-27T09:22:25.019Z,6.74
2019-02-27T09:24:57.244Z,6.95
2019-02-27T09:27:25.871Z,7.11
2019-02-27T09:29:55.345Z,7.24
2019-02-27T09:32:27.137Z,7.44
2019-02-27T09:34:59.609Z,7.55
2019-02-27T09:37:31.919Z,7.71
2019-02-27T09:40:05.867Z,7.84
2019-02-27T09:42:34.691Z,7.93
2019-02-27T09:45:03.318Z,8.09
2019-02-27T09:47:31.885Z,8.20
2019-02-27T09:50:03.567Z,8.36
2019-02-27T09:52:35.044Z,8.54
2019-02-27T09:55:07.105Z,8.71
2019-02-27T09:57:38.609Z,8.92
2019-02-27T10:00:29.882Z,9.02
2019-02-27T10:03:02.029Z,9.25
2019-02-27T10:05:31.028Z,9.37
2019-02-27T10:07:59.895Z,9.43
2019-02-27T10:10:31.250Z,9.56
2019-02-27T10:12:59.971Z,9.73
2019-02-27T10:15:28.647Z,10.03
2019-02-27T10:17:59.150Z,10.14
2019-02-27T10:20:30.555Z,10.23
2019-02-27T10:22:59.320Z,10.30
2019-02-27T10:25:30.945Z,10.51
2019-02-27T10:28:03.436Z,10.59
2019-02-27T10:30:30.125Z,10.66
2019-02-27T10:32:58.737Z,10.70
2019-02-27T10:35:30.603Z,10.79
2019-02-27T10:37:59.179Z,10.95
2019-02-27T10:40:31.004Z,11.15
2019-02-27T10:42:59.566Z,11.11
2019-02-27T10:45:34.238Z,11.14
2019-02-27T10:48:05.691Z,11.40
2019-02-27T10:50:37.363Z,11.60
2019-02-27T10:53:08.867Z,11.57
2019-02-27T10:55:41.339Z,11.56
2019-02-27T10:58:12.716Z,11.65
2019-02-27T11:00:41.595Z,11.75
2019-02-27T11:03:13.112Z,11.95
2019-02-27T11:05:41.759Z,12.00
2019-02-27T11:08:13.402Z,12.21
2019-02-27T11:10:42.046Z,12.31
2019-02-27T11:13:13.644Z,12.40
2019-02-27T11:15:44.556Z,12.32
2019-02-27T11:18:12.521Z,12.34
2019-02-27T11:20:44.067Z,12.45
2019-02-27T11:23:12.644Z,12.60
2019-02-27T11:25:44.034Z,12.60
2019-02-27T11:28:15.546Z,12.80
2019-02-27T11:30:44.427Z,12.70
2019-02-27T11:33:24.717Z,12.75
2019-02-27T11:35:43.478Z,12.75
2019-02-27T11:38:12.395Z,12.73
2019-02-27T11:40:43.895Z,12.64
2019-02-27T11:43:12.522Z,12.79
2019-02-27T11:45:41.182Z,12.92
2019-02-27T11:48:10.089Z,13.10
2019-02-27T11:50:41.673Z,13.23
2019-02-27T11:53:13.308Z,13.40
2019-02-27T11:55:47.068Z,13.56
2019-02-27T11:58:18.397Z,13.55
2019-02-27T12:00:49.803Z,13.59
2019-02-27T12:03:18.740Z,13.67
2019-02-27T12:05:47.756Z,13.61
2019-02-27T12:08:19.087Z,13.73
2019-02-27T12:10:50.610Z,13.81
2019-02-27T12:13:19.525Z,13.88
2019-02-27T12:15:48.121Z,13.97
2019-02-27T12:18:19.440Z,14.01
2019-02-27T12:20:48.088Z,14.05
2019-02-27T12:23:16.647Z,14.03
2019-02-27T12:25:47.959Z,14.18
2019-02-27T12:28:19.642Z,14.39
2019-02-27T12:30:48.978Z,14.29
2019-02-27T12:33:20.619Z,14.34
2019-02-27T12:35:49.373Z,14.27
2019-02-27T12:38:21.111Z,14.36
2019-02-27T12:40:52.622Z,14.33
2019-02-27T12:43:24.438Z,14.27
2019-02-27T12:45:53.015Z,14.32
2019-02-27T12:48:24.550Z,14.31
2019-02-27T12:50:56.394Z,14.46
2019-02-27T12:53:26.950Z,14.54
2019-02-27T12:56:01.003Z,14.66
2019-02-27T12:58:32.308Z,14.75
2019-02-27T13:01:04.824Z,14.77
2019-02-27T13:03:33.371Z,14.68
2019-02-27T13:06:05.619Z,14.76
2019-02-27T13:08:37.316Z,14.85
2019-02-27T13:11:09.021Z,14.98
2019-02-27T13:13:40.415Z,14.89
2019-02-27T13:16:14.307Z,14.89
2019-02-27T13:18:42.173Z,14.96
2019-02-27T13:21:10.786Z,15.03
2019-02-27T13:23:42.415Z,14.98
2019-02-27T13:26:13.785Z,14.98
2019-02-27T13:28:42.342Z,15.09
2019-02-27T13:31:13.664Z,15.14
2019-02-27T13:33:45.116Z,15.01
2019-02-27T13:36:16.580Z,15.11
2019-02-27T13:38:49.564Z,14.91
2019-02-27T13:41:21.501Z,14.87
2019-02-27T13:43:50.386Z,14.92
2019-02-27T13:46:22.749Z,15.01
2019-02-27T13:48:54.397Z,15.04
2019-02-27T13:51:27.622Z,15.11
2019-02-27T13:54:00.538Z,15.15
2019-02-27T13:56:34.102Z,15.13
2019-02-27T13:59:02.673Z,15.12
2019-02-27T14:01:34.251Z,15.14
2019-02-27T14:04:05.612Z,15.08
2019-02-27T14:06:34.171Z,15.16
2019-02-27T14:09:08.672Z,15.29
2019-02-27T14:11:40.710Z,15.25
2019-02-27T14:14:09.413Z,15.23
2019-02-27T14:16:37.960Z,15.34
2019-02-27T14:19:06.627Z,15.38
2019-02-27T14:21:36.153Z,15.24
2019-02-27T14:24:04.994Z,15.29
2019-02-27T14:26:38.277Z,15.30
2019-02-27T14:29:07.702Z,15.36
2019-02-27T14:31:36.901Z,15.35
2019-02-27T14:34:08.193Z,15.34
2019-02-27T14:36:39.392Z,15.41
2019-02-27T14:39:08.720Z,15.33
2019-02-27T14:41:40.088Z,15.35
2019-02-27T14:44:08.674Z,15.35
2019-02-27T14:46:37.244Z,15.31
2019-02-27T14:49:08.543Z,15.24
2019-02-27T14:51:41.174Z,15.21
2019-02-27T14:54:10.722Z,15.20
2019-02-27T14:56:42.709Z,15.16
2019-02-27T14:59:14.063Z,15.14
2019-02-27T15:01:48.634Z,15.09
2019-02-27T15:04:18.583Z,15.15
2019-02-27T15:06:51.263Z,15.09
2019-02-27T15:09:23.123Z,15.11
2019-02-27T15:11:54.406Z,15.10
2019-02-27T15:14:31.064Z,15.03
2019-02-27T15:17:01.340Z,15.02
2019-02-27T15:19:30.661Z,14.96
2019-02-27T15:22:02.372Z,15.04
2019-02-27T15:24:34.779Z,15.02
2019-02-27T15:27:06.926Z,15.02
2019-02-27T15:29:39.580Z,14.94
2019-02-27T15:32:08.987Z,14.84
2019-02-27T15:34:37.882Z,14.71
2019-02-27T15:37:09.141Z,14.69
2019-02-27T15:39:41.222Z,14.75
2019-02-27T15:42:12.468Z,14.75
2019-02-27T15:44:43.778Z,14.80
2019-02-27T15:47:15.602Z,14.69
2019-02-27T15:49:46.112Z,14.49
2019-02-27T15:52:17.459Z,14.19
2019-02-27T15:54:48.913Z,14.08
2019-02-27T15:57:20.192Z,13.98
2019-02-27T15:59:51.492Z,13.84
2019-02-27T16:02:23.201Z,13.64
2019-02-27T16:04:55.153Z,13.53
2019-02-27T16:07:22.090Z,13.51
2019-02-27T16:09:53.863Z,13.30
2019-02-27T16:12:25.947Z,13.04
2019-02-27T16:14:56.911Z,12.97
2019-02-27T16:17:30.956Z,12.89
2019-02-27T16:19:58.656Z,12.80
2019-02-27T16:22:31.510Z,12.64
2019-02-27T16:25:00.237Z,12.56
2019-02-27T16:27:29.163Z,12.38
2019-02-27T16:29:59.266Z,12.32
2019-02-27T16:32:29.375Z,12.16
2019-02-27T16:34:59.233Z,12.03
2019-02-27T16:37:31.489Z,11.91
2019-02-27T16:40:00.151Z,11.79
2019-02-27T16:42:28.884Z,11.75
2019-02-27T16:45:00.453Z,11.60
2019-02-27T16:47:29.021Z,11.49
2019-02-27T16:49:57.614Z,11.37
2019-02-27T16:52:29.122Z,11.31
2019-02-27T16:55:01.465Z,11.20
2019-02-27T16:57:31.164Z,11.11
2019-02-27T17:00:02.516Z,10.94
2019-02-27T17:02:35.497Z,10.91
2019-02-27T17:05:08.814Z,10.83
2019-02-27T17:07:36.128Z,10.78
2019-02-27T17:10:10.845Z,10.65
2019-02-27T17:12:42.237Z,10.53
2019-02-27T17:15:10.900Z,10.44
2019-02-27T17:17:39.534Z,10.38
2019-02-27T17:20:12.763Z,10.30
2019-02-27T17:22:44.330Z,10.23
2019-02-27T17:25:14.815Z,10.13
2019-02-27T17:27:49.962Z,9.96
2019-02-27T17:30:18.974Z,9.75
2019-02-27T17:32:47.777Z,9.52
2019-02-27T17:35:16.365Z,9.26
2019-02-27T17:37:47.669Z,9.08
2019-02-27T17:40:19.582Z,9.00
2019-02-27T17:42:53.135Z,8.93
2019-02-27T17:45:26.980Z,8.86
2019-02-27T17:47:56.006Z,8.81
2019-02-27T17:50:24.751Z,8.75
2019-02-27T17:52:53.440Z,8.67
2019-02-27T17:55:22.025Z,8.60
2019-02-27T17:57:57.707Z,8.52
2019-02-27T18:00:29.745Z,8.42
2019-02-27T18:02:59.077Z,8.28
2019-02-27T18:05:28.373Z,8.13
2019-02-27T18:07:57.041Z,8.01
2019-02-27T18:10:28.638Z,7.93
2019-02-27T18:13:01.403Z,7.91
2019-02-27T18:15:30.892Z,7.83
2019-02-27T18:18:02.492Z,7.83
2019-02-27T18:20:32.144Z,7.87
2019-02-27T18:23:00.837Z,7.93
2019-02-27T18:25:29.424Z,7.97
2019-02-27T18:28:00.787Z,7.91
2019-02-27T18:30:29.828Z,7.93
2019-02-27T18:33:01.003Z,7.97
2019-02-27T18:35:31.975Z,8.04
2019-02-27T18:38:00.541Z,8.02
2019-02-27T18:40:29.094Z,7.98
2019-02-27T18:43:00.735Z,7.89
2019-02-27T18:45:29.852Z,7.85
2019-02-27T18:48:01.135Z,7.77
2019-02-27T18:50:29.759Z,7.81
2019-02-27T18:53:01.316Z,7.84
2019-02-27T18:55:31.387Z,7.83
2019-02-27T18:58:00.283Z,7.88
2019-02-27T19:00:33.436Z,7.89
2019-02-27T19:03:06.277Z,7.98
2019-02-27T19:05:38.156Z,7.97
2019-02-27T19:08:07.298Z,8.01
2019-02-27T19:10:41.401Z,8.05
2019-02-27T19:13:11.003Z,8.01
2019-02-27T19:15:45.317Z,8.04
2019-02-27T19:18:11.228Z,7.97
2019-02-27T19:20:45.194Z,8.01
2019-02-27T19:23:17.332Z,7.99
2019-02-27T19:25:45.619Z,8.00
2019-02-27T19:28:14.814Z,7.97
2019-02-27T19:30:44.001Z,7.91
2019-02-27T19:33:13.934Z,7.89
2019-02-27T19:35:43.475Z,7.86
2019-02-27T19:38:13.638Z,7.88
2019-02-27T19:40:42.911Z,7.95
2019-02-27T19:43:14.539Z,7.93
2019-02-27T19:45:43.767Z,7.88
2019-02-27T19:48:15.758Z,7.91
2019-02-27T19:50:47.339Z,7.88
2019-02-27T19:53:19.346Z,7.77
2019-02-27T19:55:51.572Z,7.66
2019-02-27T19:58:23.244Z,7.54
2019-02-27T20:00:54.592Z,7.51
2019-02-27T20:03:29.321Z,7.56
2019-02-27T20:06:01.439Z,7.57
2019-02-27T20:08:30.090Z,7.61
2019-02-27T20:10:58.741Z,7.64
2019-02-27T20:13:29.999Z,7.67
2019-02-27T20:16:01.365Z,7.64
2019-02-27T20:18:32.893Z,7.65
2019-02-27T20:21:01.495Z,7.53
2019-02-27T20:23:30.186Z,7.53
2019-02-27T20:25:58.836Z,7.45
2019-02-27T20:28:31.822Z,7.38
2019-02-27T20:35:20.680Z,7.30
2019-02-27T20:37:06.479Z,7.30
2019-02-27T20:39:35.957Z,7.35
2019-02-27T20:42:05.784Z,7.35
2019-02-27T20:44:37.369Z,7.35
2019-02-27T20:47:04.961Z,7.36
2019-02-27T20:49:33.621Z,7.26
2019-02-27T20:52:02.259Z,7.21
2019-02-27T20:54:33.591Z,7.14
2019-02-27T20:57:02.158Z,7.11
2019-02-27T20:59:30.818Z,7.21
2019-02-27T21:01:59.553Z,7.17
2019-02-27T21:04:32.330Z,7.24
2019-02-27T21:07:01.297Z,7.22
2019-02-27T21:09:30.668Z,7.29
2019-02-27T21:12:03.512Z,7.26
2019-02-27T21:14:29.609Z,7.22
2019-02-27T21:17:01.077Z,7.35
2019-02-27T21:19:33.871Z,7.33
2019-02-27T21:22:03.555Z,7.47
2019-02-27T21:24:32.124Z,7.41
2019-02-27T21:27:00.847Z,7.34
2019-02-27T21:29:29.547Z,7.28
2019-02-27T21:32:01.502Z,7.12
2019-02-27T21:34:29.599Z,7.07
2019-02-27T21:37:01.311Z,7.01
2019-02-27T21:39:29.916Z,6.93
2019-02-27T21:41:58.481Z,6.89
2019-02-27T21:44:29.210Z,6.83
2019-02-27T21:46:58.371Z,6.82
2019-02-27T21:49:31.832Z,6.86
2019-02-27T21:51:58.868Z,6.92
2019-02-27T21:54:30.377Z,6.95
2019-02-27T21:56:59.439Z,6.93
2019-02-27T21:59:30.195Z,6.99
2019-02-27T22:02:03.844Z,7.06
2019-02-27T22:05:42.810Z,7.00
2019-02-27T22:07:17.851Z,6.98
2019-02-27T22:12:27.233Z,6.95
2019-02-27T22:15:00.291Z,7.03
2019-02-27T22:17:29.188Z,7.10
2019-02-27T22:20:19.915Z,7.14
2019-02-27T22:26:58.777Z,7.23
2019-02-27T22:34:33.026Z,7.37
2019-02-27T22:36:47.640Z,7.44
2019-02-27T22:41:10.095Z,7.48
2019-02-27T22:44:46.025Z,7.46
2019-02-27T22:47:21.474Z,7.43
2019-02-27T22:51:38.532Z,7.65
2019-02-27T22:52:47.723Z,7.56
2019-02-27T22:55:43.136Z,7.48
2019-02-27T22:58:28.299Z,7.47
2019-02-27T23:01:14.909Z,7.62
2019-02-27T23:03:55.016Z,7.68
2019-02-27T23:06:32.953Z,7.63
2019-02-27T23:09:01.540Z,7.56
2019-02-27T23:11:39.715Z,7.53
2019-02-27T23:14:11.489Z,7.56
2019-02-27T23:16:43.394Z,7.44
2019-02-27T23:19:14.661Z,7.35
2019-02-27T23:21:46.035Z,7.28
2019-02-27T23:24:17.685Z,7.21
2019-02-27T23:26:46.341Z,7.19
2019-02-27T23:29:14.893Z,7.19
2019-02-27T23:31:43.546Z,7.22
2019-02-27T23:34:15.061Z,7.16
2019-02-27T23:36:46.737Z,7.13
2019-02-27T23:39:18.175Z,6.97
2019-02-27T23:41:49.496Z,6.92
2019-02-27T23:44:20.738Z,6.85
2019-02-27T23:46:57.239Z,6.85
2019-02-27T23:49:26.335Z,6.79
2019-02-27T23:51:57.763Z,6.68
2019-02-27T23:54:28.429Z,6.58
2019-02-27T23:56:57.014Z,6.51
2019-02-27T23:59:28.513Z,6.51
